sensor_id;sensor_type;location;lat;lon;timestamp;pressure;altitude;pressure_sealevel;temperature;humidity
28456;BME280;15682;56.742;38.866;2024-03-22T00:00:23;99920.0;;;-0.1;82.6
28456;BME280;15682;56.742;38.866;2024-03-22T00:02:23;99920.0;;;-0.1;82.8
28456;BME280;15682;56.742;38.866;2024-03-22T00:04:23;99920.0;;;-0.1;82.1
28456;BME280;15682;56.742;38.866;2024-03-22T00:06:23;99920.0;;;-0.2;82.8
28456;BME280;15682;56.742;38.866;2024-03-22T00:08:23;99920.0;;;-0.2;82.8
28456;BME280;15682;56.742;38.866;2024-03-22T00:10:23;99920.0;;;-0.2;83.7
28456;BME280;15682;56.742;38.866;2024-03-22T00:12:23;99920.0;;;-0.2;82.3
28456;BME280;15682;56.742;38.866;2024-03-22T00:14:23;99920.0;;;-0.2;82.3
28456;BME280;15682;56.742;38.866;2024-03-22T00:16:22;99910.0;;;-0.3;82.9
28456;BME280;15682;56.742;38.866;2024-03-22T00:18:22;99910.0;;;-0.3;82.9
28456;BME280;15682;56.742;38.866;2024-03-22T00:20:22;99910.0;;;-0.3;82.9
28456;BME280;15682;56.742;38.866;2024-03-22T00:22:22;99910.0;;;-0.3;82.9
28456;BME280;15682;56.742;38.866;2024-03-22T00:24:22;99910.0;;;-0.3;83.4
28456;BME280;15682;56.742;38.866;2024-03-22T00:26:22;99910.0;;;-0.3;83.4
28456;BME280;15682;56.742;38.866;2024-03-22T00:28:22;99900.0;;;-0.3;82.4
28456;BME280;15682;56.742;38.866;2024-03-22T00:30:22;99900.0;;;-0.3;83.2
28456;BME280;15682;56.742;38.866;2024-03-22T00:32:22;99900.0;;;-0.3;83.2
28456;BME280;15682;56.742;38.866;2024-03-22T00:34:22;99900.0;;;-0.3;84.0
28456;BME280;15682;56.742;38.866;2024-03-22T00:36:21;99890.0;;;-0.4;83.2
28456;BME280;15682;56.742;38.866;2024-03-22T00:38:21;99900.0;;;-0.4;83.9
28456;BME280;15682;56.742;38.866;2024-03-22T00:40:21;99900.0;;;-0.4;82.9
28456;BME280;15682;56.742;38.866;2024-03-22T00:42:21;99900.0;;;-0.4;83.8
28456;BME280;15682;56.742;38.866;2024-03-22T00:44:21;99900.0;;;-0.4;84.2
28456;BME280;15682;56.742;38.866;2024-03-22T00:46:21;99900.0;;;-0.4;84.2
28456;BME280;15682;56.742;38.866;2024-03-22T00:48:21;99900.0;;;-0.4;83.9
28456;BME280;15682;56.742;38.866;2024-03-22T00:50:21;99900.0;;;-0.4;83.9
28456;BME280;15682;56.742;38.866;2024-03-22T00:52:21;99900.0;;;-0.5;83.9
28456;BME280;15682;56.742;38.866;2024-03-22T00:54:21;99900.0;;;-0.4;84.1
28456;BME280;15682;56.742;38.866;2024-03-22T00:56:21;99900.0;;;-0.4;84.5
28456;BME280;15682;56.742;38.866;2024-03-22T00:58:21;99900.0;;;-0.5;83.4
28456;BME280;15682;56.742;38.866;2024-03-22T01:00:21;99900.0;;;-0.5;84.4
28456;BME280;15682;56.742;38.866;2024-03-22T01:02:20;99900.0;;;-0.6;83.4
28456;BME280;15682;56.742;38.866;2024-03-22T01:04:20;99890.0;;;-0.6;84.5
28456;BME280;15682;56.742;38.866;2024-03-22T01:06:20;99890.0;;;-0.6;84.5
28456;BME280;15682;56.742;38.866;2024-03-22T01:08:20;99890.0;;;-0.6;84.5
28456;BME280;15682;56.742;38.866;2024-03-22T01:10:20;99890.0;;;-0.6;84.1
28456;BME280;15682;56.742;38.866;2024-03-22T01:12:20;99890.0;;;-0.7;84.8
28456;BME280;15682;56.742;38.866;2024-03-22T01:14:20;99890.0;;;-0.7;84.6
28456;BME280;15682;56.742;38.866;2024-03-22T01:16:20;99890.0;;;-0.8;84.6
28456;BME280;15682;56.742;38.866;2024-03-22T01:18:20;99890.0;;;-0.8;84.6
28456;BME280;15682;56.742;38.866;2024-03-22T01:20:20;99890.0;;;-0.8;85.4
28456;BME280;15682;56.742;38.866;2024-03-22T01:22:20;99890.0;;;-0.8;84.6
28456;BME280;15682;56.742;38.866;2024-03-22T01:24:19;99880.0;;;-0.8;84.4
28456;BME280;15682;56.742;38.866;2024-03-22T01:26:19;99880.0;;;-0.9;84.4
28456;BME280;15682;56.742;38.866;2024-03-22T01:28:19;99880.0;;;-0.9;84.4
28456;BME280;15682;56.742;38.866;2024-03-22T01:30:19;99880.0;;;-0.9;85.1
28456;BME280;15682;56.742;38.866;2024-03-22T01:32:19;99870.0;;;-0.9;84.5
28456;BME280;15682;56.742;38.866;2024-03-22T01:34:19;99870.0;;;-0.9;85.2
28456;BME280;15682;56.742;38.866;2024-03-22T01:36:19;99870.0;;;-1.0;85.2
28456;BME280;15682;56.742;38.866;2024-03-22T01:38:19;99870.0;;;-1.1;83.8
28456;BME280;15682;56.742;38.866;2024-03-22T01:40:19;99870.0;;;-1.1;85.3
28456;BME280;15682;56.742;38.866;2024-03-22T01:42:19;99870.0;;;-1.1;85.3
28456;BME280;15682;56.742;38.866;2024-03-22T01:44:19;99870.0;;;-1.1;85.4
28456;BME280;15682;56.742;38.866;2024-03-22T01:46:18;99870.0;;;-1.1;85.4
28456;BME280;15682;56.742;38.866;2024-03-22T01:48:19;99860.0;;;-1.1;86.0
28456;BME280;15682;56.742;38.866;2024-03-22T01:50:18;99860.0;;;-1.1;85.4
28456;BME280;15682;56.742;38.866;2024-03-22T01:52:18;99870.0;;;-1.1;85.4
28456;BME280;15682;56.742;38.866;2024-03-22T01:54:19;99870.0;;;-1.2;85.4
28456;BME280;15682;56.742;38.866;2024-03-22T01:56:18;99870.0;;;-1.2;85.4
28456;BME280;15682;56.742;38.866;2024-03-22T01:58:18;99870.0;;;-1.2;85.4
28456;BME280;15682;56.742;38.866;2024-03-22T02:00:18;99870.0;;;-1.2;86.0
28456;BME280;15682;56.742;38.866;2024-03-22T02:02:18;99860.0;;;-1.2;86.0
28456;BME280;15682;56.742;38.866;2024-03-22T02:04:18;99860.0;;;-1.2;86.0
28456;BME280;15682;56.742;38.866;2024-03-22T02:06:18;99860.0;;;-1.3;86.0
28456;BME280;15682;56.742;38.866;2024-03-22T02:08:17;99860.0;;;-1.4;86.0
28456;BME280;15682;56.742;38.866;2024-03-22T02:10:18;99860.0;;;-1.4;86.0
28456;BME280;15682;56.742;38.866;2024-03-22T02:12:17;99860.0;;;-1.4;86.0
28456;BME280;15682;56.742;38.866;2024-03-22T02:14:17;99860.0;;;-1.4;85.7
28456;BME280;15682;56.742;38.866;2024-03-22T02:16:17;99850.0;;;-1.4;85.7
28456;BME280;15682;56.742;38.866;2024-03-22T02:18:17;99850.0;;;-1.5;85.7
28456;BME280;15682;56.742;38.866;2024-03-22T02:20:17;99850.0;;;-1.4;86.3
28456;BME280;15682;56.742;38.866;2024-03-22T02:22:17;99850.0;;;-1.4;86.3
28456;BME280;15682;56.742;38.866;2024-03-22T02:24:17;99840.0;;;-1.4;85.6
28456;BME280;15682;56.742;38.866;2024-03-22T02:26:17;99840.0;;;-1.4;86.1
28456;BME280;15682;56.742;38.866;2024-03-22T02:28:16;99840.0;;;-1.5;86.1
28456;BME280;15682;56.742;38.866;2024-03-22T02:30:17;99840.0;;;-1.5;85.6
28456;BME280;15682;56.742;38.866;2024-03-22T02:32:16;99840.0;;;-1.5;86.6
28456;BME280;15682;56.742;38.866;2024-03-22T02:34:16;99840.0;;;-1.5;86.0
28456;BME280;15682;56.742;38.866;2024-03-22T02:36:16;99840.0;;;-1.5;86.0
28456;BME280;15682;56.742;38.866;2024-03-22T02:38:16;99840.0;;;-1.5;86.0
28456;BME280;15682;56.742;38.866;2024-03-22T02:40:16;99840.0;;;-1.6;86.0
28456;BME280;15682;56.742;38.866;2024-03-22T02:42:16;99830.0;;;-1.6;86.0
28456;BME280;15682;56.742;38.866;2024-03-22T02:44:16;99830.0;;;-1.6;86.1
28456;BME280;15682;56.742;38.866;2024-03-22T02:46:16;99830.0;;;-1.7;86.7
28456;BME280;15682;56.742;38.866;2024-03-22T02:48:15;99830.0;;;-1.7;86.0
28456;BME280;15682;56.742;38.866;2024-03-22T02:50:15;99830.0;;;-1.7;86.0
28456;BME280;15682;56.742;38.866;2024-03-22T02:52:15;99820.0;;;-1.7;86.0
28456;BME280;15682;56.742;38.866;2024-03-22T02:54:15;99820.0;;;-1.7;86.2
28456;BME280;15682;56.742;38.866;2024-03-22T02:56:15;99820.0;;;-1.7;86.2
28456;BME280;15682;56.742;38.866;2024-03-22T02:58:18;99820.0;;;-1.7;86.2
28456;BME280;15682;56.742;38.866;2024-03-22T03:00:15;99810.0;;;-1.7;86.5
28456;BME280;15682;56.742;38.866;2024-03-22T03:02:15;99810.0;;;-1.7;86.5
28456;BME280;15682;56.742;38.866;2024-03-22T03:04:15;99810.0;;;-1.7;86.5
28456;BME280;15682;56.742;38.866;2024-03-22T03:06:14;99810.0;;;-1.9;86.5
28456;BME280;15682;56.742;38.866;2024-03-22T03:08:14;99810.0;;;-1.9;86.5
28456;BME280;15682;56.742;38.866;2024-03-22T03:10:14;99810.0;;;-1.9;86.5
28456;BME280;15682;56.742;38.866;2024-03-22T03:12:14;99810.0;;;-1.9;86.5
28456;BME280;15682;56.742;38.866;2024-03-22T03:14:14;99810.0;;;-1.9;86.6
28456;BME280;15682;56.742;38.866;2024-03-22T03:16:14;99810.0;;;-1.8;86.6
28456;BME280;15682;56.742;38.866;2024-03-22T03:18:14;99810.0;;;-1.8;86.6
28456;BME280;15682;56.742;38.866;2024-03-22T03:20:14;99810.0;;;-1.8;86.6
28456;BME280;15682;56.742;38.866;2024-03-22T03:22:14;99810.0;;;-1.8;86.5
28456;BME280;15682;56.742;38.866;2024-03-22T03:24:14;99810.0;;;-1.8;86.5
28456;BME280;15682;56.742;38.866;2024-03-22T03:26:13;99800.0;;;-1.8;86.5
28456;BME280;15682;56.742;38.866;2024-03-22T03:28:14;99800.0;;;-1.8;86.5
28456;BME280;15682;56.742;38.866;2024-03-22T03:30:13;99800.0;;;-1.8;87.1
28456;BME280;15682;56.742;38.866;2024-03-22T03:32:13;99800.0;;;-1.8;87.1
28456;BME280;15682;56.742;38.866;2024-03-22T03:34:13;99800.0;;;-1.8;86.5
28456;BME280;15682;56.742;38.866;2024-03-22T03:36:13;99800.0;;;-1.8;86.5
28456;BME280;15682;56.742;38.866;2024-03-22T03:38:13;99800.0;;;-1.8;86.5
28456;BME280;15682;56.742;38.866;2024-03-22T03:40:13;99800.0;;;-1.8;86.5
28456;BME280;15682;56.742;38.866;2024-03-22T03:42:13;99800.0;;;-1.7;87.0
28456;BME280;15682;56.742;38.866;2024-03-22T03:44:12;99800.0;;;-1.8;86.4
28456;BME280;15682;56.742;38.866;2024-03-22T03:46:12;99800.0;;;-1.9;86.4
28456;BME280;15682;56.742;38.866;2024-03-22T03:48:12;99800.0;;;-1.8;86.5
28456;BME280;15682;56.742;38.866;2024-03-22T03:50:13;99800.0;;;-2.0;87.1
28456;BME280;15682;56.742;38.866;2024-03-22T03:52:12;99780.0;;;-2.0;86.4
28456;BME280;15682;56.742;38.866;2024-03-22T03:54:12;99780.0;;;-2.0;86.9
28456;BME280;15682;56.742;38.866;2024-03-22T03:56:12;99780.0;;;-1.9;86.9
28456;BME280;15682;56.742;38.866;2024-03-22T03:58:12;99780.0;;;-1.9;86.9
28456;BME280;15682;56.742;38.866;2024-03-22T04:00:12;99780.0;;;-1.9;86.2
28456;BME280;15682;56.742;38.866;2024-03-22T04:02:12;99780.0;;;-1.9;86.9
28456;BME280;15682;56.742;38.866;2024-03-22T04:04:12;99780.0;;;-1.9;86.3
28456;BME280;15682;56.742;38.866;2024-03-22T04:06:11;99780.0;;;-1.7;86.3
28456;BME280;15682;56.742;38.866;2024-03-22T04:08:11;99780.0;;;-1.7;86.3
28456;BME280;15682;56.742;38.866;2024-03-22T04:10:11;99780.0;;;-1.6;86.3
28456;BME280;15682;56.742;38.866;2024-03-22T04:12:11;99780.0;;;-1.6;85.8
28456;BME280;15682;56.742;38.866;2024-03-22T04:14:11;99780.0;;;-1.3;86.0
28456;BME280;15682;56.742;38.866;2024-03-22T04:16:11;99780.0;;;-0.1;83.8
28456;BME280;15682;56.742;38.866;2024-03-22T04:18:11;99780.0;;;0.9;81.5
28456;BME280;15682;56.742;38.866;2024-03-22T04:20:11;99780.0;;;1.6;78.3
28456;BME280;15682;56.742;38.866;2024-03-22T04:22:10;99780.0;;;2.0;77.2
28456;BME280;15682;56.742;38.866;2024-03-22T04:24:10;99780.0;;;2.0;76.2
28456;BME280;15682;56.742;38.866;2024-03-22T04:26:10;99770.0;;;1.7;76.2
28456;BME280;15682;56.742;38.866;2024-03-22T04:28:10;99770.0;;;0.6;79.8
28456;BME280;15682;56.742;38.866;2024-03-22T04:30:11;99770.0;;;0.4;81.1
28456;BME280;15682;56.742;38.866;2024-03-22T04:32:10;99770.0;;;0.3;81.7
28456;BME280;15682;56.742;38.866;2024-03-22T04:34:10;99770.0;;;-0.1;82.2
28456;BME280;15682;56.742;38.866;2024-03-22T04:36:10;99770.0;;;-0.1;83.4
28456;BME280;15682;56.742;38.866;2024-03-22T04:38:10;99770.0;;;-0.2;83.1
28456;BME280;15682;56.742;38.866;2024-03-22T04:40:11;99770.0;;;-0.1;81.6
28456;BME280;15682;56.742;38.866;2024-03-22T04:42:10;99770.0;;;-0.3;82.8
28456;BME280;15682;56.742;38.866;2024-03-22T04:44:10;99770.0;;;-0.3;83.4
28456;BME280;15682;56.742;38.866;2024-03-22T04:46:10;99770.0;;;-0.5;83.4
28456;BME280;15682;56.742;38.866;2024-03-22T04:48:12;99770.0;;;-0.4;83.3
28456;BME280;15682;56.742;38.866;2024-03-22T04:50:10;99770.0;;;-0.4;83.5
28456;BME280;15682;56.742;38.866;2024-03-22T04:52:10;99770.0;;;-0.4;83.5
28456;BME280;15682;56.742;38.866;2024-03-22T04:54:10;99770.0;;;-0.4;83.1
28456;BME280;15682;56.742;38.866;2024-03-22T04:56:10;99770.0;;;-0.4;83.1
28456;BME280;15682;56.742;38.866;2024-03-22T04:58:11;99770.0;;;-0.4;83.1
28456;BME280;15682;56.742;38.866;2024-03-22T05:00:10;99770.0;;;-0.4;83.1
28456;BME280;15682;56.742;38.866;2024-03-22T05:02:09;99770.0;;;-0.4;83.1
28456;BME280;15682;56.742;38.866;2024-03-22T05:04:10;99770.0;;;-0.2;83.8
28456;BME280;15682;56.742;38.866;2024-03-22T05:06:09;99750.0;;;-0.3;83.5
28456;BME280;15682;56.742;38.866;2024-03-22T05:08:09;99750.0;;;-0.3;83.5
28456;BME280;15682;56.742;38.866;2024-03-22T05:10:09;99750.0;;;-0.3;83.5
28456;BME280;15682;56.742;38.866;2024-03-22T05:12:09;99750.0;;;-0.3;83.5
28456;BME280;15682;56.742;38.866;2024-03-22T05:14:09;99750.0;;;-0.1;82.9
28456;BME280;15682;56.742;38.866;2024-03-22T05:16:09;99750.0;;;-0.0;82.9
28456;BME280;15682;56.742;38.866;2024-03-22T05:18:09;99750.0;;;-0.0;82.9
28456;BME280;15682;56.742;38.866;2024-03-22T05:20:10;99750.0;;;-0.0;82.9
28456;BME280;15682;56.742;38.866;2024-03-22T05:22:09;99740.0;;;-0.0;83.4
28456;BME280;15682;56.742;38.866;2024-03-22T05:24:09;99740.0;;;-0.0;83.3
28456;BME280;15682;56.742;38.866;2024-03-22T05:26:09;99740.0;;;0.2;82.7
28456;BME280;15682;56.742;38.866;2024-03-22T05:28:09;99740.0;;;0.3;82.1
28456;BME280;15682;56.742;38.866;2024-03-22T05:30:10;99730.0;;;0.5;81.5
28456;BME280;15682;56.742;38.866;2024-03-22T05:32:08;99730.0;;;0.5;81.5
28456;BME280;15682;56.742;38.866;2024-03-22T05:34:08;99730.0;;;0.5;81.7
28456;BME280;15682;56.742;38.866;2024-03-22T05:36:08;99730.0;;;0.4;81.7
28456;BME280;15682;56.742;38.866;2024-03-22T05:38:08;99720.0;;;0.4;81.7
28456;BME280;15682;56.742;38.866;2024-03-22T05:40:09;99720.0;;;0.4;80.9
28456;BME280;15682;56.742;38.866;2024-03-22T05:42:08;99720.0;;;0.4;80.9
28456;BME280;15682;56.742;38.866;2024-03-22T05:44:08;99720.0;;;0.4;80.9
28456;BME280;15682;56.742;38.866;2024-03-22T05:46:08;99720.0;;;0.5;80.9
28456;BME280;15682;56.742;38.866;2024-03-22T05:48:08;99720.0;;;0.6;80.3
28456;BME280;15682;56.742;38.866;2024-03-22T05:50:08;99720.0;;;0.8;80.3
28456;BME280;15682;56.742;38.866;2024-03-22T05:52:08;99720.0;;;0.9;79.6
28456;BME280;15682;56.742;38.866;2024-03-22T05:54:08;99720.0;;;1.2;79.4
28456;BME280;15682;56.742;38.866;2024-03-22T05:56:08;99710.0;;;1.2;78.9
28456;BME280;15682;56.742;38.866;2024-03-22T05:58:08;99710.0;;;1.2;78.9
28456;BME280;15682;56.742;38.866;2024-03-22T06:00:08;99710.0;;;1.3;78.4
28456;BME280;15682;56.742;38.866;2024-03-22T06:02:08;99710.0;;;1.6;77.7
28456;BME280;15682;56.742;38.866;2024-03-22T06:04:08;99710.0;;;1.7;77.9
28456;BME280;15682;56.742;38.866;2024-03-22T06:06:07;99710.0;;;2.0;77.9
28456;BME280;15682;56.742;38.866;2024-03-22T06:08:07;99710.0;;;2.0;76.9
28456;BME280;15682;56.742;38.866;2024-03-22T06:10:08;99710.0;;;2.0;76.9
28456;BME280;15682;56.742;38.866;2024-03-22T06:12:08;99710.0;;;2.1;76.0
28456;BME280;15682;56.742;38.866;2024-03-22T06:14:08;99710.0;;;2.1;76.7
28456;BME280;15682;56.742;38.866;2024-03-22T06:16:08;99700.0;;;2.1;76.7
28456;BME280;15682;56.742;38.866;2024-03-22T06:18:07;99710.0;;;2.1;76.0
28456;BME280;15682;56.742;38.866;2024-03-22T06:20:08;99710.0;;;2.4;76.0
28456;BME280;15682;56.742;38.866;2024-03-22T06:22:07;99710.0;;;2.6;76.0
28456;BME280;15682;56.742;38.866;2024-03-22T06:24:07;99710.0;;;2.8;76.3
28456;BME280;15682;56.742;38.866;2024-03-22T06:26:07;99700.0;;;2.9;74.5
28456;BME280;15682;56.742;38.866;2024-03-22T06:28:07;99700.0;;;2.9;74.5
28456;BME280;15682;56.742;38.866;2024-03-22T06:30:08;99700.0;;;2.7;74.5
28456;BME280;15682;56.742;38.866;2024-03-22T06:32:07;99700.0;;;2.7;75.3
28456;BME280;15682;56.742;38.866;2024-03-22T06:34:08;99700.0;;;2.7;75.4
28456;BME280;15682;56.742;38.866;2024-03-22T06:36:08;99700.0;;;2.8;74.3
28456;BME280;15682;56.742;38.866;2024-03-22T06:38:08;99700.0;;;3.0;74.3
28456;BME280;15682;56.742;38.866;2024-03-22T06:40:09;99700.0;;;3.2;73.7
28456;BME280;15682;56.742;38.866;2024-03-22T06:42:08;99700.0;;;3.2;73.2
28456;BME280;15682;56.742;38.866;2024-03-22T06:44:08;99680.0;;;3.3;72.7
28456;BME280;15682;56.742;38.866;2024-03-22T06:46:08;99680.0;;;3.2;72.7
28456;BME280;15682;56.742;38.866;2024-03-22T06:48:08;99680.0;;;3.4;72.6
28456;BME280;15682;56.742;38.866;2024-03-22T06:50:08;99680.0;;;3.4;72.6
28456;BME280;15682;56.742;38.866;2024-03-22T06:52:08;99680.0;;;3.4;72.6
28456;BME280;15682;56.742;38.866;2024-03-22T06:54:08;99680.0;;;3.5;72.3
28456;BME280;15682;56.742;38.866;2024-03-22T06:56:08;99680.0;;;3.7;71.8
28456;BME280;15682;56.742;38.866;2024-03-22T06:58:08;99680.0;;;3.9;71.8
28456;BME280;15682;56.742;38.866;2024-03-22T07:00:08;99680.0;;;4.1;71.3
28456;BME280;15682;56.742;38.866;2024-03-22T07:02:08;99680.0;;;4.1;70.7
28456;BME280;15682;56.742;38.866;2024-03-22T07:04:08;99680.0;;;4.2;71.0
28456;BME280;15682;56.742;38.866;2024-03-22T07:06:08;99680.0;;;4.3;71.0
28456;BME280;15682;56.742;38.866;2024-03-22T07:08:08;99680.0;;;4.3;69.5
28456;BME280;15682;56.742;38.866;2024-03-22T07:10:09;99670.0;;;4.5;69.5
28456;BME280;15682;56.742;38.866;2024-03-22T07:12:08;99670.0;;;4.6;69.5
28456;BME280;15682;56.742;38.866;2024-03-22T07:14:08;99670.0;;;4.7;69.3
28456;BME280;15682;56.742;38.866;2024-03-22T07:16:08;99660.0;;;4.6;68.6
28456;BME280;15682;56.742;38.866;2024-03-22T07:18:08;99670.0;;;4.8;68.6
28456;BME280;15682;56.742;38.866;2024-03-22T07:20:09;99670.0;;;4.8;68.4
28456;BME280;15682;56.742;38.866;2024-03-22T07:22:08;99670.0;;;4.8;68.4
28456;BME280;15682;56.742;38.866;2024-03-22T07:24:08;99670.0;;;5.0;68.8
28456;BME280;15682;56.742;38.866;2024-03-22T07:26:08;99650.0;;;5.0;69.0
28456;BME280;15682;56.742;38.866;2024-03-22T07:28:08;99650.0;;;5.0;69.0
28456;BME280;15682;56.742;38.866;2024-03-22T07:30:09;99650.0;;;5.1;68.3
28456;BME280;15682;56.742;38.866;2024-03-22T07:32:08;99650.0;;;5.1;68.3
28456;BME280;15682;56.742;38.866;2024-03-22T07:34:08;99650.0;;;5.1;68.0
28456;BME280;15682;56.742;38.866;2024-03-22T07:36:08;99630.0;;;5.2;68.0
28456;BME280;15682;56.742;38.866;2024-03-22T07:38:09;99630.0;;;5.3;67.8
28456;BME280;15682;56.742;38.866;2024-03-22T07:40:09;99630.0;;;5.5;67.7
28456;BME280;15682;56.742;38.866;2024-03-22T07:42:09;99630.0;;;5.6;67.7
28456;BME280;15682;56.742;38.866;2024-03-22T07:44:09;99630.0;;;5.8;67.2
28456;BME280;15682;56.742;38.866;2024-03-22T07:46:09;99630.0;;;5.9;66.7
28456;BME280;15682;56.742;38.866;2024-03-22T07:48:09;99620.0;;;6.1;66.7
28456;BME280;15682;56.742;38.866;2024-03-22T07:50:10;99620.0;;;6.2;66.7
28456;BME280;15682;56.742;38.866;2024-03-22T07:52:09;99620.0;;;6.2;65.4
28456;BME280;15682;56.742;38.866;2024-03-22T07:54:09;99610.0;;;6.4;64.6
28456;BME280;15682;56.742;38.866;2024-03-22T07:56:09;99610.0;;;6.7;63.3
28456;BME280;15682;56.742;38.866;2024-03-22T07:58:09;99610.0;;;6.9;63.3
28456;BME280;15682;56.742;38.866;2024-03-22T08:00:10;99600.0;;;7.0;62.0
28456;BME280;15682;56.742;38.866;2024-03-22T08:02:09;99600.0;;;7.0;62.0
28456;BME280;15682;56.742;38.866;2024-03-22T08:04:09;99600.0;;;7.0;61.4
28456;BME280;15682;56.742;38.866;2024-03-22T08:06:09;99600.0;;;7.0;60.4
28456;BME280;15682;56.742;38.866;2024-03-22T08:08:09;99600.0;;;7.0;61.3
28456;BME280;15682;56.742;38.866;2024-03-22T08:10:10;99580.0;;;7.2;61.3
28456;BME280;15682;56.742;38.866;2024-03-22T08:12:10;99580.0;;;7.1;60.2
28456;BME280;15682;56.742;38.866;2024-03-22T08:14:10;99580.0;;;7.2;60.3
28456;BME280;15682;56.742;38.866;2024-03-22T08:16:10;99570.0;;;7.2;60.3
28456;BME280;15682;56.742;38.866;2024-03-22T08:18:10;99570.0;;;7.2;60.3
28456;BME280;15682;56.742;38.866;2024-03-22T08:20:10;99570.0;;;7.4;59.6
28456;BME280;15682;56.742;38.866;2024-03-22T08:22:10;99570.0;;;7.4;60.4
28456;BME280;15682;56.742;38.866;2024-03-22T08:24:10;99570.0;;;7.4;59.1
28456;BME280;15682;56.742;38.866;2024-03-22T08:26:10;99570.0;;;7.6;59.3
28456;BME280;15682;56.742;38.866;2024-03-22T08:28:10;99550.0;;;7.7;59.3
28456;BME280;15682;56.742;38.866;2024-03-22T08:30:11;99550.0;;;7.7;58.8
28456;BME280;15682;56.742;38.866;2024-03-22T08:32:10;99550.0;;;7.7;58.8
28456;BME280;15682;56.742;38.866;2024-03-22T08:34:11;99550.0;;;7.7;58.3
28456;BME280;15682;56.742;38.866;2024-03-22T08:36:11;99550.0;;;7.8;58.3
28456;BME280;15682;56.742;38.866;2024-03-22T08:38:11;99550.0;;;7.9;57.4
28456;BME280;15682;56.742;38.866;2024-03-22T08:40:12;99550.0;;;7.9;57.4
28456;BME280;15682;56.742;38.866;2024-03-22T08:42:11;99530.0;;;7.9;57.4
28456;BME280;15682;56.742;38.866;2024-03-22T08:44:11;99530.0;;;7.9;58.3
28456;BME280;15682;56.742;38.866;2024-03-22T08:46:11;99530.0;;;7.9;57.5
28456;BME280;15682;56.742;38.866;2024-03-22T08:48:11;99530.0;;;7.7;58.0
28456;BME280;15682;56.742;38.866;2024-03-22T08:50:12;99530.0;;;8.0;58.0
28456;BME280;15682;56.742;38.866;2024-03-22T08:52:12;99540.0;;;8.0;57.4
28456;BME280;15682;56.742;38.866;2024-03-22T08:54:12;99540.0;;;8.0;57.2
28456;BME280;15682;56.742;38.866;2024-03-22T08:56:12;99540.0;;;8.1;57.2
28456;BME280;15682;56.742;38.866;2024-03-22T08:58:12;99530.0;;;8.1;57.2
28456;BME280;15682;56.742;38.866;2024-03-22T09:00:13;99530.0;;;8.1;57.2
28456;BME280;15682;56.742;38.866;2024-03-22T09:02:12;99530.0;;;8.1;57.5
28456;BME280;15682;56.742;38.866;2024-03-22T09:04:12;99530.0;;;8.1;58.2
28456;BME280;15682;56.742;38.866;2024-03-22T09:06:12;99520.0;;;8.1;57.0
28456;BME280;15682;56.742;38.866;2024-03-22T09:08:13;99520.0;;;8.1;57.0
28456;BME280;15682;56.742;38.866;2024-03-22T09:10:13;99520.0;;;8.1;57.0
28456;BME280;15682;56.742;38.866;2024-03-22T09:12:13;99520.0;;;8.1;56.1
28456;BME280;15682;56.742;38.866;2024-03-22T09:14:13;99520.0;;;8.1;57.4
28456;BME280;15682;56.742;38.866;2024-03-22T09:16:13;99510.0;;;8.1;57.3
28456;BME280;15682;56.742;38.866;2024-03-22T09:18:13;99500.0;;;8.1;57.3
28456;BME280;15682;56.742;38.866;2024-03-22T09:20:14;99500.0;;;8.1;57.9
28456;BME280;15682;56.742;38.866;2024-03-22T09:22:13;99500.0;;;8.2;57.3
28456;BME280;15682;56.742;38.866;2024-03-22T09:24:13;99500.0;;;8.2;57.0
28456;BME280;15682;56.742;38.866;2024-03-22T09:26:13;99500.0;;;8.2;57.0
28456;BME280;15682;56.742;38.866;2024-03-22T09:28:14;99500.0;;;8.2;57.0
28456;BME280;15682;56.742;38.866;2024-03-22T09:30:14;99500.0;;;8.2;56.6
28456;BME280;15682;56.742;38.866;2024-03-22T09:32:14;99500.0;;;8.2;56.6
28456;BME280;15682;56.742;38.866;2024-03-22T09:34:14;99500.0;;;8.1;56.2
28456;BME280;15682;56.742;38.866;2024-03-22T09:36:14;99500.0;;;8.2;55.9
28456;BME280;15682;56.742;38.866;2024-03-22T09:38:14;99490.0;;;8.2;55.1
28456;BME280;15682;56.742;38.866;2024-03-22T09:40:14;99490.0;;;8.3;55.1
28456;BME280;15682;56.742;38.866;2024-03-22T09:42:16;99490.0;;;8.2;57.4
28456;BME280;15682;56.742;38.866;2024-03-22T09:44:18;99490.0;;;8.2;56.8
28456;BME280;15682;56.742;38.866;2024-03-22T09:46:15;99480.0;;;8.2;55.6
28456;BME280;15682;56.742;38.866;2024-03-22T09:48:15;99470.0;;;8.2;54.9
28456;BME280;15682;56.742;38.866;2024-03-22T09:50:15;99470.0;;;8.4;54.9
28456;BME280;15682;56.742;38.866;2024-03-22T09:52:16;99470.0;;;8.4;55.7
28456;BME280;15682;56.742;38.866;2024-03-22T09:54:15;99470.0;;;8.4;55.9
28456;BME280;15682;56.742;38.866;2024-03-22T09:56:15;99470.0;;;8.4;54.3
28456;BME280;15682;56.742;38.866;2024-03-22T09:58:15;99470.0;;;8.4;53.6
28456;BME280;15682;56.742;38.866;2024-03-22T10:00:17;99470.0;;;8.4;53.6
28456;BME280;15682;56.742;38.866;2024-03-22T10:02:16;99470.0;;;8.4;53.6
28456;BME280;15682;56.742;38.866;2024-03-22T10:04:16;99470.0;;;8.2;55.8
28456;BME280;15682;56.742;38.866;2024-03-22T10:06:16;99470.0;;;8.2;53.2
28456;BME280;15682;56.742;38.866;2024-03-22T10:08:16;99470.0;;;8.1;55.5
28456;BME280;15682;56.742;38.866;2024-03-22T10:10:16;99460.0;;;8.1;53.2
28456;BME280;15682;56.742;38.866;2024-03-22T10:12:16;99450.0;;;8.2;52.4
28456;BME280;15682;56.742;38.866;2024-03-22T10:14:16;99450.0;;;8.3;53.0
28456;BME280;15682;56.742;38.866;2024-03-22T10:16:16;99450.0;;;8.3;53.0
28456;BME280;15682;56.742;38.866;2024-03-22T10:18:16;99450.0;;;8.5;53.6
28456;BME280;15682;56.742;38.866;2024-03-22T10:20:17;99450.0;;;8.7;52.4
28456;BME280;15682;56.742;38.866;2024-03-22T10:22:17;99450.0;;;8.7;52.4
28456;BME280;15682;56.742;38.866;2024-03-22T10:24:17;99450.0;;;8.7;52.2
28456;BME280;15682;56.742;38.866;2024-03-22T10:26:17;99450.0;;;8.7;51.7
28456;BME280;15682;56.742;38.866;2024-03-22T10:28:17;99450.0;;;8.7;52.1
28456;BME280;15682;56.742;38.866;2024-03-22T10:30:17;99420.0;;;8.7;51.2
28456;BME280;15682;56.742;38.866;2024-03-22T10:32:18;99420.0;;;8.7;51.2
28456;BME280;15682;56.742;38.866;2024-03-22T10:34:18;99420.0;;;8.7;51.2
28456;BME280;15682;56.742;38.866;2024-03-22T10:36:18;99420.0;;;8.7;51.3
28456;BME280;15682;56.742;38.866;2024-03-22T10:38:19;99420.0;;;8.7;51.3
28456;BME280;15682;56.742;38.866;2024-03-22T10:40:19;99420.0;;;8.5;50.2
28456;BME280;15682;56.742;38.866;2024-03-22T10:42:19;99420.0;;;8.5;50.2
28456;BME280;15682;56.742;38.866;2024-03-22T10:44:18;99400.0;;;8.7;50.3
28456;BME280;15682;56.742;38.866;2024-03-22T10:46:20;99400.0;;;8.7;49.1
28456;BME280;15682;56.742;38.866;2024-03-22T10:48:19;99400.0;;;8.8;49.1
28456;BME280;15682;56.742;38.866;2024-03-22T10:50:19;99400.0;;;8.8;49.9
28456;BME280;15682;56.742;38.866;2024-03-22T10:52:19;99400.0;;;8.7;50.0
28456;BME280;15682;56.742;38.866;2024-03-22T10:54:21;99400.0;;;8.5;49.9
28456;BME280;15682;56.742;38.866;2024-03-22T10:56:19;99400.0;;;8.7;48.8